Time,TemperatureF,DewpointF,PressureIn,WindDirection,WindDirectionDegrees,WindSpeedMPH,WindSpeedGustMPH,Humidity,HourlyPrecipIn,Conditions,Clouds,dailyrainin,SoftwareType,DateUTC
2013-09-21 00:04:00,53.5,51.2,29.82,WNW,287,3.0,4.0,92,0.00,,,0.00,Wunderground v.1.15,2013-09-21 05:04:00,
2013-09-21 00:10:00,53.5,51.2,29.82,WNW,287,4.0,4.0,92,0.00,,,0.00,Wunderground v.1.15,2013-09-21 05:10:00,
2013-09-21 00:16:00,53.3,51.0,29.82,WNW,287,3.0,4.0,92,0.00,,,0.00,Wunderground v.1.15,2013-09-21 05:16:00,
2013-09-21 00:22:00,53.1,50.8,29.82,WNW,287,1.0,2.0,92,0.00,,,0.00,Wunderground v.1.15,2013-09-21 05:22:00,
2013-09-21 00:28:00,53.0,50.7,29.82,WNW,287,0.0,2.0,92,0.00,,,0.00,Wunderground v.1.15,2013-09-21 05:28:00,
2013-09-21 00:34:00,52.8,50.5,29.82,WNW,287,0.0,2.0,92,0.00,,,0.00,Wunderground v.1.15,2013-09-21 05:34:00,
2013-09-21 00:40:00,52.8,50.5,29.82,WNW,287,0.0,0.0,92,0.00,,,0.00,Wunderground v.1.15,2013-09-21 05:40:00,
2013-09-21 00:46:00,52.7,50.4,29.82,WNW,287,0.0,2.0,92,0.00,,,0.00,Wunderground v.1.15,2013-09-21 05:46:00,
2013-09-21 00:52:00,52.6,50.3,29.82,WNW,287,1.0,5.0,92,0.00,,,0.00,Wunderground v.1.15,2013-09-21 05:52:00,
2013-09-21 00:58:00,52.7,50.4,29.82,WNW,287,3.0,5.0,92,0.00,,,0.00,Wunderground v.1.15,2013-09-21 05:58:00,
2013-09-21 01:04:00,52.8,50.5,29.81,WNW,287,3.0,4.0,92,0.00,,,0.00,Wunderground v.1.15,2013-09-21 06:04:00,
2013-09-21 01:10:00,52.9,50.6,29.82,WNW,287,4.0,4.0,92,0.00,,,0.00,Wunderground v.1.15,2013-09-21 06:10:00,
2013-09-21 01:16:00,53.4,51.1,29.81,WNW,286,4.0,6.0,92,0.00,,,0.00,Wunderground v.1.15,2013-09-21 06:16:00,
2013-09-21 01:22:00,53.6,51.3,29.82,WNW,286,2.0,3.0,92,0.00,,,0.00,Wunderground v.1.15,2013-09-21 06:22:00,
2013-09-21 01:28:00,53.6,51.3,29.82,WNW,286,2.0,6.0,92,0.00,,,0.00,Wunderground v.1.15,2013-09-21 06:28:00,
2013-09-21 01:34:00,54.0,51.4,29.82,WNW,295,5.0,8.0,91,0.00,,,0.00,Wunderground v.1.15,2013-09-21 06:34:00,
2013-09-21 01:40:00,54.4,51.8,29.82,WNW,302,8.0,8.0,91,0.00,,,0.00,Wunderground v.1.15,2013-09-21 06:40:00,
2013-09-21 01:46:00,54.3,51.4,29.82,WNW,288,7.0,8.0,90,0.00,,,0.00,Wunderground v.1.15,2013-09-21 06:46:00,
2013-09-21 01:52:00,54.1,51.2,29.82,WNW,284,7.0,9.0,90,0.00,,,0.00,Wunderground v.1.15,2013-09-21 06:52:00,
2013-09-21 01:58:00,53.7,51.1,29.82,WNW,293,6.0,9.0,91,0.00,,,0.00,Wunderground v.1.15,2013-09-21 06:58:00,
2013-09-21 02:04:00,53.5,50.9,29.82,WNW,293,5.0,5.0,91,0.00,,,0.00,Wunderground v.1.15,2013-09-21 07:04:00,
2013-09-21 02:10:00,53.3,50.7,29.82,WNW,287,4.0,5.0,91,0.00,,,0.00,Wunderground v.1.15,2013-09-21 07:10:00,
2013-09-21 02:16:00,53.1,50.5,29.81,WNW,287,4.0,5.0,91,0.00,,,0.00,Wunderground v.1.15,2013-09-21 07:16:00,
2013-09-21 02:22:00,52.8,50.2,29.81,WNW,287,3.0,3.0,91,0.00,,,0.00,Wunderground v.1.15,2013-09-21 07:22:00,
2013-09-21 02:28:00,52.6,50.3,29.81,WNW,286,4.0,6.0,92,0.00,,,0.00,Wunderground v.1.15,2013-09-21 07:28:00,
2013-09-21 02:34:00,52.4,50.1,29.81,WNW,285,4.0,6.0,92,0.00,,,0.00,Wunderground v.1.15,2013-09-21 07:34:00,
2013-09-21 02:40:00,52.4,50.1,29.81,WNW,284,4.0,6.0,92,0.00,,,0.00,Wunderground v.1.15,2013-09-21 07:40:00,
2013-09-21 02:46:00,52.2,49.9,29.81,WNW,284,4.0,4.0,92,0.00,,,0.00,Wunderground v.1.15,2013-09-21 07:46:00,
2013-09-21 02:52:00,51.9,49.6,29.81,WNW,284,3.0,3.0,92,0.00,,,0.00,Wunderground v.1.15,2013-09-21 07:52:00,
2013-09-21 02:58:00,51.6,49.4,29.81,WNW,284,2.0,3.0,92,0.00,,,0.00,Wunderground v.1.15,2013-09-21 07:58:00,
2013-09-21 03:04:00,51.4,49.2,29.81,WNW,284,1.0,1.0,92,0.00,,,0.00,Wunderground v.1.15,2013-09-21 08:04:00,
2013-09-21 03:10:00,51.3,49.1,29.81,WNW,284,0.0,0.0,92,0.00,,,0.00,Wunderground v.1.15,2013-09-21 08:10:00,
2013-09-21 03:16:00,51.2,49.2,29.81,WNW,284,0.0,0.0,93,0.00,,,0.00,Wunderground v.1.15,2013-09-21 08:16:00,
2013-09-21 03:22:00,51.1,49.1,29.81,WNW,284,0.0,0.0,93,0.00,,,0.00,Wunderground v.1.15,2013-09-21 08:22:00,
2013-09-21 03:28:00,51.0,49.0,29.81,WNW,284,0.0,0.0,93,0.00,,,0.00,Wunderground v.1.15,2013-09-21 08:28:00,
2013-09-21 03:34:00,51.0,49.0,29.81,WNW,284,1.0,6.0,93,0.00,,,0.00,Wunderground v.1.15,2013-09-21 08:34:00,
2013-09-21 03:40:00,51.3,49.3,29.81,WNW,284,4.0,4.0,93,0.00,,,0.00,Wunderground v.1.15,2013-09-21 08:40:00,
2013-09-21 03:46:00,51.4,49.4,29.81,WNW,284,4.0,4.0,93,0.00,,,0.00,Wunderground v.1.15,2013-09-21 08:46:00,
2013-09-21 03:52:00,51.3,49.3,29.81,WNW,284,3.0,3.0,93,0.00,,,0.00,Wunderground v.1.15,2013-09-21 08:52:00,
2013-09-21 03:58:00,51.4,49.4,29.81,WNW,296,3.0,3.0,93,0.00,,,0.00,Wunderground v.1.15,2013-09-21 08:58:00,
2013-09-21 04:04:00,51.4,49.4,29.81,WNW,294,4.0,7.0,93,0.00,,,0.00,Wunderground v.1.15,2013-09-21 09:04:00,
2013-09-21 04:10:00,51.4,49.4,29.81,WNW,294,5.0,5.0,93,0.00,,,0.00,Wunderground v.1.15,2013-09-21 09:10:00,
2013-09-21 04:16:00,51.4,49.2,29.81,WNW,294,4.0,5.0,92,0.00,,,0.00,Wunderground v.1.15,2013-09-21 09:16:00,
2013-09-21 04:22:00,51.2,49.0,29.81,WNW,295,4.0,4.0,92,0.00,,,0.00,Wunderground v.1.15,2013-09-21 09:22:00,
2013-09-21 04:28:00,51.2,49.0,29.82,WNW,296,3.0,4.0,92,0.00,,,0.00,Wunderground v.1.15,2013-09-21 09:28:00,
2013-09-21 04:34:00,51.1,49.1,29.81,WNW,296,4.0,5.0,93,0.00,,,0.00,Wunderground v.1.15,2013-09-21 09:34:00,
2013-09-21 04:40:00,51.0,48.8,29.81,WNW,297,4.0,4.0,92,0.00,,,0.00,Wunderground v.1.15,2013-09-21 09:40:00,
2013-09-21 04:46:00,50.9,48.7,29.82,WNW,297,2.0,5.0,92,0.00,,,0.00,Wunderground v.1.15,2013-09-21 09:46:00,
2013-09-21 04:52:00,50.7,48.5,29.82,WNW,297,2.0,4.0,92,0.00,,,0.00,Wunderground v.1.15,2013-09-21 09:52:00,
2013-09-21 04:58:00,50.6,48.7,29.82,WNW,297,1.0,4.0,93,0.00,,,0.00,Wunderground v.1.15,2013-09-21 09:58:00,
2013-09-21 05:04:00,50.4,48.5,29.82,WNW,297,0.0,1.0,93,0.00,,,0.00,Wunderground v.1.15,2013-09-21 10:04:00,
2013-09-21 05:10:00,50.3,48.4,29.82,WNW,297,0.0,0.0,93,0.00,,,0.00,Wunderground v.1.15,2013-09-21 10:10:00,
2013-09-21 05:16:00,50.1,48.2,29.82,WNW,297,0.0,0.0,93,0.00,,,0.00,Wunderground v.1.15,2013-09-21 10:16:00,
2013-09-21 05:22:00,50.0,48.1,29.82,WNW,297,0.0,0.0,93,0.00,,,0.00,Wunderground v.1.15,2013-09-21 10:22:00,
2013-09-21 05:28:00,49.7,47.8,29.82,WNW,297,0.0,0.0,93,0.00,,,0.00,Wunderground v.1.15,2013-09-21 10:28:00,
2013-09-21 05:34:00,49.3,47.4,29.82,WNW,297,0.0,0.0,93,0.00,,,0.00,Wunderground v.1.15,2013-09-21 10:34:00,
2013-09-21 05:40:00,49.2,47.3,29.83,WNW,297,0.0,0.0,93,0.00,,,0.00,Wunderground v.1.15,2013-09-21 10:40:00,
2013-09-21 05:46:00,48.9,47.0,29.83,WNW,297,0.0,0.0,93,0.00,,,0.00,Wunderground v.1.15,2013-09-21 10:46:00,
2013-09-21 05:52:00,48.8,46.9,29.83,WNW,297,0.0,0.0,93,0.00,,,0.00,Wunderground v.1.15,2013-09-21 10:52:00,
2013-09-21 05:58:00,48.8,47.2,29.83,WNW,297,0.0,0.0,94,0.00,,,0.00,Wunderground v.1.15,2013-09-21 10:58:00,
2013-09-21 06:04:00,48.6,46.7,29.83,WNW,297,0.0,0.0,93,0.00,,,0.00,Wunderground v.1.15,2013-09-21 11:04:00,
2013-09-21 06:10:00,48.5,46.9,29.83,WNW,297,0.0,3.0,94,0.00,,,0.00,Wunderground v.1.15,2013-09-21 11:10:00,
2013-09-21 06:16:00,48.6,47.0,29.83,WNW,297,1.0,3.0,94,0.00,,,0.00,Wunderground v.1.15,2013-09-21 11:16:00,
2013-09-21 06:22:00,48.5,46.9,29.84,WNW,297,0.0,1.0,94,0.00,,,0.00,Wunderground v.1.15,2013-09-21 11:22:00,
2013-09-21 06:28:00,48.5,46.9,29.84,WNW,297,0.0,1.0,94,0.00,,,0.00,Wunderground v.1.15,2013-09-21 11:28:00,
2013-09-21 06:34:00,48.3,46.7,29.84,WNW,297,0.0,0.0,94,0.00,,,0.00,Wunderground v.1.15,2013-09-21 11:34:00,
2013-09-21 06:40:00,48.1,46.5,29.84,WNW,297,0.0,0.0,94,0.00,,,0.00,Wunderground v.1.15,2013-09-21 11:40:00,
2013-09-21 06:46:00,47.9,46.3,29.85,WNW,297,0.0,0.0,94,0.00,,,0.00,Wunderground v.1.15,2013-09-21 11:46:00,
2013-09-21 06:52:00,48.0,46.4,29.85,WNW,297,0.0,0.0,94,0.00,,,0.00,Wunderground v.1.15,2013-09-21 11:52:00,
2013-09-21 06:58:00,48.4,47.0,29.85,WNW,297,1.0,3.0,95,0.00,,,0.00,Wunderground v.1.15,2013-09-21 11:58:00,
2013-09-21 07:04:00,48.4,46.8,29.85,WNW,297,1.0,1.0,94,0.00,,,0.00,Wunderground v.1.15,2013-09-21 12:04:00,
2013-09-21 07:10:00,48.5,46.9,29.85,WNW,297,0.0,0.0,94,0.00,,,0.00,Wunderground v.1.15,2013-09-21 12:10:00,
2013-09-21 07:16:00,48.7,47.3,29.86,WNW,297,2.0,3.0,95,0.00,,,0.00,Wunderground v.1.15,2013-09-21 12:16:00,
2013-09-21 07:22:00,48.8,47.4,29.86,WNW,297,2.0,2.0,95,0.00,,,0.00,Wunderground v.1.15,2013-09-21 12:22:00,
2013-09-21 07:28:00,49.2,47.8,29.86,WNW,297,1.0,2.0,95,0.00,,,0.00,Wunderground v.1.15,2013-09-21 12:28:00,
2013-09-21 07:34:00,49.6,48.2,29.85,WNW,297,2.0,4.0,95,0.00,,,0.00,Wunderground v.1.15,2013-09-21 12:34:00,
2013-09-21 07:40:00,50.0,48.6,29.86,WNW,297,2.0,2.0,95,0.00,,,0.00,Wunderground v.1.15,2013-09-21 12:40:00,
2013-09-21 07:46:00,50.4,48.7,29.86,WNW,297,1.0,3.0,94,0.00,,,0.00,Wunderground v.1.15,2013-09-21 12:46:00,
2013-09-21 07:52:00,50.9,49.2,29.86,WNW,297,1.0,1.0,94,0.00,,,0.00,Wunderground v.1.15,2013-09-21 12:52:00,
2013-09-21 07:58:00,51.2,49.5,29.86,WNW,297,2.0,4.0,94,0.00,,,0.00,Wunderground v.1.15,2013-09-21 12:58:00,
2013-09-21 08:04:00,51.6,49.9,29.86,WNW,297,2.0,2.0,94,0.00,,,0.00,Wunderground v.1.15,2013-09-21 13:04:00,
2013-09-21 08:10:00,52.1,50.4,29.86,WNW,295,2.0,4.0,94,0.00,,,0.00,Wunderground v.1.15,2013-09-21 13:10:00,
2013-09-21 08:16:00,52.5,50.5,29.87,WNW,283,2.0,3.0,93,0.00,,,0.00,Wunderground v.1.15,2013-09-21 13:16:00,
2013-09-21 08:22:00,53.0,51.0,29.87,NW,324,1.0,1.0,93,0.00,,,0.00,Wunderground v.1.15,2013-09-21 13:22:00,
2013-09-21 08:28:00,53.6,51.3,29.87,NNW,343,2.0,4.0,92,0.00,,,0.00,Wunderground v.1.15,2013-09-21 13:28:00,
2013-09-21 08:34:00,54.2,51.9,29.87,NW,323,3.0,3.0,92,0.00,,,0.00,Wunderground v.1.15,2013-09-21 13:34:00,
2013-09-21 08:40:00,54.8,52.2,29.87,NNW,329,2.0,3.0,91,0.00,,,0.00,Wunderground v.1.15,2013-09-21 13:40:00,
2013-09-21 08:46:00,55.2,52.0,29.87,North,5,2.0,4.0,89,0.00,,,0.00,Wunderground v.1.15,2013-09-21 13:46:00,
2013-09-21 08:52:00,55.7,52.2,29.87,NNW,346,2.0,2.0,88,0.00,,,0.00,Wunderground v.1.15,2013-09-21 13:52:00,
2013-09-21 08:58:00,56.2,52.1,29.87,North,5,3.0,3.0,86,0.00,,,0.00,Wunderground v.1.15,2013-09-21 13:58:00,
2013-09-21 09:04:00,56.6,51.8,29.87,NNW,332,4.0,5.0,84,0.00,,,0.00,Wunderground v.1.15,2013-09-21 14:04:00,
2013-09-21 09:10:00,56.9,52.1,29.88,NNW,332,4.0,8.0,84,0.00,,,0.00,Wunderground v.1.15,2013-09-21 14:10:00,
2013-09-21 09:16:00,57.1,51.3,29.88,NW,311,5.0,8.0,81,0.00,,,0.00,Wunderground v.1.15,2013-09-21 14:16:00,
2013-09-21 09:22:00,57.4,51.6,29.88,NNW,342,5.0,5.0,81,0.00,,,0.00,Wunderground v.1.15,2013-09-21 14:22:00,
2013-09-21 09:28:00,57.9,51.4,29.88,NNW,336,3.0,8.0,79,0.00,,,0.00,Wunderground v.1.15,2013-09-21 14:28:00,
2013-09-21 09:34:00,58.4,51.6,29.88,North,351,2.0,10.0,78,0.00,,,0.00,Wunderground v.1.15,2013-09-21 14:34:00,
2013-09-21 09:40:00,58.5,51.0,29.88,North,5,3.0,3.0,76,0.00,,,0.00,Wunderground v.1.15,2013-09-21 14:40:00,
2013-09-21 09:46:00,58.6,51.4,29.88,NNE,13,4.0,5.0,77,0.00,,,0.00,Wunderground v.1.15,2013-09-21 14:46:00,
2013-09-21 09:52:00,59.0,50.7,29.88,NNW,340,3.0,4.0,74,0.00,,,0.00,Wunderground v.1.15,2013-09-21 14:52:00,
2013-09-21 09:58:00,59.4,51.1,29.89,NNW,334,3.0,4.0,74,0.00,,,0.00,Wunderground v.1.15,2013-09-21 14:58:00,
2013-09-21 10:04:00,59.4,50.7,29.89,NNW,336,4.0,9.0,73,0.00,,,0.00,Wunderground v.1.15,2013-09-21 15:04:00,
2013-09-21 10:10:00,59.4,50.7,29.88,NNW,338,5.0,8.0,73,0.00,,,0.00,Wunderground v.1.15,2013-09-21 15:10:00,
2013-09-21 10:16:00,59.6,51.3,29.89,NNW,330,4.0,8.0,74,0.00,,,0.00,Wunderground v.1.15,2013-09-21 15:16:00,
2013-09-21 10:22:00,60.2,51.1,29.89,NNW,329,2.0,3.0,72,0.00,,,0.00,Wunderground v.1.15,2013-09-21 15:22:00,
2013-09-21 10:28:00,60.2,51.1,29.89,North,355,3.0,3.0,72,0.00,,,0.00,Wunderground v.1.15,2013-09-21 15:28:00,
2013-09-21 10:34:00,60.5,51.0,29.89,NW,323,4.0,4.0,71,0.00,,,0.00,Wunderground v.1.15,2013-09-21 15:34:00,
2013-09-21 10:40:00,60.6,50.8,29.89,NNW,344,5.0,5.0,70,0.00,,,0.00,Wunderground v.1.15,2013-09-21 15:40:00,
2013-09-21 10:46:00,60.9,51.0,29.89,NNW,329,3.0,5.0,70,0.00,,,0.00,Wunderground v.1.15,2013-09-21 15:46:00,
2013-09-21 10:52:00,61.3,51.0,29.89,NNE,13,3.0,5.0,69,0.00,,,0.00,Wunderground v.1.15,2013-09-21 15:52:00,
2013-09-21 10:58:00,61.4,51.1,29.89,NNW,336,4.0,5.0,69,0.00,,,0.00,Wunderground v.1.15,2013-09-21 15:58:00,
2013-09-21 11:04:00,61.9,50.0,29.89,NW,319,3.0,7.0,65,0.00,,,0.00,Wunderground v.1.15,2013-09-21 16:04:00,
2013-09-21 11:10:00,62.2,50.3,29.89,NW,325,4.0,8.0,65,0.00,,,0.00,Wunderground v.1.15,2013-09-21 16:10:00,
2013-09-21 11:16:00,62.6,51.1,29.89,WNW,291,4.0,5.0,66,0.00,,,0.00,Wunderground v.1.15,2013-09-21 16:16:00,
2013-09-21 11:22:00,62.2,50.3,29.89,NW,326,5.0,5.0,65,0.00,,,0.00,Wunderground v.1.15,2013-09-21 16:22:00,
2013-09-21 11:28:00,62.4,50.1,29.88,NNW,346,5.0,9.0,64,0.00,,,0.00,Wunderground v.1.15,2013-09-21 16:28:00,
2013-09-21 11:34:00,62.4,50.1,29.88,NW,311,4.0,12.0,64,0.00,,,0.00,Wunderground v.1.15,2013-09-21 16:34:00,
2013-09-21 11:40:00,62.9,48.8,29.89,NNW,344,6.0,12.0,60,0.00,,,0.00,Wunderground v.1.15,2013-09-21 16:40:00,
2013-09-21 11:46:00,63.3,49.6,29.88,West,263,6.0,16.0,61,0.00,,,0.00,Wunderground v.1.15,2013-09-21 16:46:00,
2013-09-21 11:52:00,63.6,48.5,29.89,WNW,300,7.0,7.0,58,0.00,,,0.00,Wunderground v.1.15,2013-09-21 16:52:00,
2013-09-21 11:58:00,63.8,49.2,29.89,NNW,348,6.0,9.0,59,0.00,,,0.00,Wunderground v.1.15,2013-09-21 16:58:00,
2013-09-21 12:04:00,63.2,49.1,29.88,WNW,295,7.0,11.0,60,0.00,,,0.00,Wunderground v.1.15,2013-09-21 17:04:00,
2013-09-21 12:10:00,63.6,48.5,29.88,WNW,291,7.0,11.0,58,0.00,,,0.00,Wunderground v.1.15,2013-09-21 17:10:00,
2013-09-21 12:16:00,63.7,48.2,29.88,WNW,298,8.0,11.0,57,0.00,,,0.00,Wunderground v.1.15,2013-09-21 17:16:00,
2013-09-21 12:22:00,63.6,48.1,29.88,West,265,10.0,10.0,57,0.00,,,0.00,Wunderground v.1.15,2013-09-21 17:22:00,
2013-09-21 12:28:00,64.1,49.5,29.88,NNW,338,5.0,10.0,59,0.00,,,0.00,Wunderground v.1.15,2013-09-21 17:28:00,
2013-09-21 12:34:00,64.3,51.9,29.88,WNW,285,5.0,7.0,64,0.00,,,0.00,Wunderground v.1.15,2013-09-21 17:34:00,
2013-09-21 12:40:00,64.8,51.0,29.88,WNW,284,7.0,7.0,61,0.00,,,0.00,Wunderground v.1.15,2013-09-21 17:40:00,
2013-09-21 12:46:00,64.8,48.2,29.89,NNW,347,7.0,11.0,55,0.00,,,0.00,Wunderground v.1.15,2013-09-21 17:46:00,
2013-09-21 12:52:00,64.0,48.0,29.89,NW,325,6.0,6.0,56,0.00,,,0.00,Wunderground v.1.15,2013-09-21 17:52:00,
2013-09-21 12:58:00,63.6,49.0,29.88,WNW,289,4.0,7.0,59,0.00,,,0.00,Wunderground v.1.15,2013-09-21 17:58:00,
2013-09-21 13:04:00,64.0,50.3,29.88,NNW,342,6.0,6.0,61,0.00,,,0.00,Wunderground v.1.15,2013-09-21 18:04:00,
2013-09-21 13:10:00,64.8,49.2,29.88,WNW,300,6.0,7.0,57,0.00,,,0.00,Wunderground v.1.15,2013-09-21 18:10:00,
2013-09-21 13:16:00,64.3,49.2,29.88,WNW,290,7.0,9.0,58,0.00,,,0.00,Wunderground v.1.15,2013-09-21 18:16:00,
2013-09-21 13:22:00,64.4,48.4,29.88,WNW,297,6.0,6.0,56,0.00,,,0.00,Wunderground v.1.15,2013-09-21 18:22:00,
2013-09-21 13:28:00,64.3,47.8,29.88,WNW,284,7.0,11.0,55,0.00,,,0.00,Wunderground v.1.15,2013-09-21 18:28:00,
2013-09-21 13:34:00,64.8,49.7,29.87,WNW,298,9.0,12.0,58,0.00,,,0.00,Wunderground v.1.15,2013-09-21 18:34:00,
2013-09-21 13:40:00,65.6,50.9,29.87,WNW,293,9.0,9.0,59,0.00,,,0.00,Wunderground v.1.15,2013-09-21 18:40:00,
2013-09-21 13:46:00,65.7,51.9,29.87,WNW,287,8.0,10.0,61,0.00,,,0.00,Wunderground v.1.15,2013-09-21 18:46:00,
2013-09-21 13:52:00,65.8,50.1,29.87,WNW,282,7.0,13.0,57,0.00,,,0.00,Wunderground v.1.15,2013-09-21 18:52:00,
2013-09-21 13:58:00,65.8,51.1,29.87,West,269,8.0,13.0,59,0.00,,,0.00,Wunderground v.1.15,2013-09-21 18:58:00,
2013-09-21 14:04:00,66.1,48.5,29.87,WNW,298,9.0,10.0,53,0.00,,,0.00,Wunderground v.1.15,2013-09-21 19:04:00,
2013-09-21 14:10:00,66.4,51.6,29.87,WNW,296,8.0,9.0,59,0.00,,,0.00,Wunderground v.1.15,2013-09-21 19:10:00,
2013-09-21 14:16:00,66.1,49.5,29.87,WNW,283,6.0,9.0,55,0.00,,,0.00,Wunderground v.1.15,2013-09-21 19:16:00,
2013-09-21 14:22:00,66.1,50.4,29.87,WNW,295,7.0,9.0,57,0.00,,,0.00,Wunderground v.1.15,2013-09-21 19:22:00,
2013-09-21 14:28:00,65.7,49.1,29.86,NNW,343,8.0,9.0,55,0.00,,,0.00,Wunderground v.1.15,2013-09-21 19:28:00,
2013-09-21 14:34:00,65.7,48.6,29.86,NW,314,6.0,11.0,54,0.00,,,0.00,Wunderground v.1.15,2013-09-21 19:34:00,
2013-09-21 14:40:00,65.8,48.7,29.86,WNW,291,5.0,9.0,54,0.00,,,0.00,Wunderground v.1.15,2013-09-21 19:40:00,
2013-09-21 14:46:00,65.7,49.1,29.86,WNW,288,8.0,11.0,55,0.00,,,0.00,Wunderground v.1.15,2013-09-21 19:46:00,
2013-09-21 14:52:00,65.1,49.5,29.86,WNW,285,9.0,12.0,57,0.00,,,0.00,Wunderground v.1.15,2013-09-21 19:52:00,
2013-09-21 14:58:00,65.2,48.6,29.86,WNW,292,6.0,12.0,55,0.00,,,0.00,Wunderground v.1.15,2013-09-21 19:58:00,
2013-09-21 15:04:00,65.4,48.8,29.86,WNW,297,6.0,7.0,55,0.00,,,0.00,Wunderground v.1.15,2013-09-21 20:04:00,
2013-09-21 15:10:00,65.3,49.2,29.85,NNW,343,4.0,7.0,56,0.00,,,0.00,Wunderground v.1.15,2013-09-21 20:10:00,
2013-09-21 15:16:00,66.0,49.4,29.86,NNW,344,4.0,10.0,55,0.00,,,0.00,Wunderground v.1.15,2013-09-21 20:16:00,
2013-09-21 15:22:00,67.0,49.8,29.85,NNW,339,4.0,4.0,54,0.00,,,0.00,Wunderground v.1.15,2013-09-21 20:22:00,
2013-09-21 15:28:00,67.1,49.9,29.85,NNW,344,3.0,7.0,54,0.00,,,0.00,Wunderground v.1.15,2013-09-21 20:28:00,
2013-09-21 15:34:00,67.3,49.1,29.85,NW,312,6.0,10.0,52,0.00,,,0.00,Wunderground v.1.15,2013-09-21 20:34:00,
2013-09-21 15:40:00,65.7,48.1,29.85,NNW,328,8.0,10.0,53,0.00,,,0.00,Wunderground v.1.15,2013-09-21 20:40:00,
2013-09-21 15:46:00,66.5,49.8,29.85,NW,317,8.0,9.0,55,0.00,,,0.00,Wunderground v.1.15,2013-09-21 20:46:00,
2013-09-21 15:52:00,67.2,49.5,29.85,NNW,340,5.0,11.0,53,0.00,,,0.00,Wunderground v.1.15,2013-09-21 20:52:00,
2013-09-21 15:58:00,67.2,50.5,29.85,WNW,286,6.0,12.0,55,0.00,,,0.00,Wunderground v.1.15,2013-09-21 20:58:00,
2013-09-21 16:04:00,67.4,50.2,29.85,NNW,338,9.0,9.0,54,0.00,,,0.00,Wunderground v.1.15,2013-09-21 21:04:00,
2013-09-21 16:10:00,67.7,50.5,29.85,West,281,6.0,9.0,54,0.00,,,0.00,Wunderground v.1.15,2013-09-21 21:10:00,
2013-09-21 16:16:00,67.8,49.0,29.85,NNW,346,6.0,10.0,51,0.00,,,0.00,Wunderground v.1.15,2013-09-21 21:16:00,
2013-09-21 16:22:00,67.2,49.0,29.85,NNW,338,5.0,5.0,52,0.00,,,0.00,Wunderground v.1.15,2013-09-21 21:22:00,
2013-09-21 16:28:00,67.3,49.6,29.85,WNW,293,3.0,8.0,53,0.00,,,0.00,Wunderground v.1.15,2013-09-21 21:28:00,
2013-09-21 16:34:00,67.4,49.7,29.85,WNW,288,6.0,9.0,53,0.00,,,0.00,Wunderground v.1.15,2013-09-21 21:34:00,
2013-09-21 16:40:00,67.5,49.3,29.85,NNW,340,6.0,6.0,52,0.00,,,0.00,Wunderground v.1.15,2013-09-21 21:40:00,
2013-09-21 16:46:00,67.5,49.8,29.85,NW,324,5.0,7.0,53,0.00,,,0.00,Wunderground v.1.15,2013-09-21 21:46:00,
2013-09-21 16:52:00,67.5,49.8,29.85,NNW,338,3.0,4.0,53,0.00,,,0.00,Wunderground v.1.15,2013-09-21 21:52:00,
2013-09-21 16:58:00,67.0,49.8,29.85,WNW,301,5.0,10.0,54,0.00,,,0.00,Wunderground v.1.15,2013-09-21 21:58:00,
2013-09-21 17:04:00,67.0,49.8,29.85,NNW,336,5.0,6.0,54,0.00,,,0.00,Wunderground v.1.15,2013-09-21 22:04:00,
2013-09-21 17:10:00,67.1,49.4,29.85,NW,313,4.0,6.0,53,0.00,,,0.00,Wunderground v.1.15,2013-09-21 22:10:00,
2013-09-21 17:16:00,67.0,49.8,29.85,WNW,300,4.0,10.0,54,0.00,,,0.00,Wunderground v.1.15,2013-09-21 22:16:00,
2013-09-21 17:22:00,66.8,49.6,29.85,NW,304,5.0,5.0,54,0.00,,,0.00,Wunderground v.1.15,2013-09-21 22:22:00,
2013-09-21 17:28:00,66.8,49.1,29.86,NW,325,4.0,5.0,53,0.00,,,0.00,Wunderground v.1.15,2013-09-21 22:28:00,
2013-09-21 17:34:00,66.6,48.9,29.86,West,280,3.0,7.0,53,0.00,,,0.00,Wunderground v.1.15,2013-09-21 22:34:00,
2013-09-21 17:40:00,66.4,49.2,29.86,WNW,298,3.0,8.0,54,0.00,,,0.00,Wunderground v.1.15,2013-09-21 22:40:00,
2013-09-21 17:46:00,66.4,49.2,29.86,NW,317,2.0,3.0,54,0.00,,,0.00,Wunderground v.1.15,2013-09-21 22:46:00,
2013-09-21 17:52:00,66.3,49.2,29.86,NNW,336,1.0,1.0,54,0.00,,,0.00,Wunderground v.1.15,2013-09-21 22:52:00,
2013-09-21 17:58:00,66.1,49.5,29.86,West,281,2.0,6.0,55,0.00,,,0.00,Wunderground v.1.15,2013-09-21 22:58:00,
2013-09-21 18:04:00,65.8,49.2,29.87,NNW,342,2.0,2.0,55,0.00,,,0.00,Wunderground v.1.15,2013-09-21 23:04:00,
2013-09-21 18:10:00,65.5,49.4,29.86,NNW,348,2.0,4.0,56,0.00,,,0.00,Wunderground v.1.15,2013-09-21 23:10:00,
2013-09-21 18:16:00,65.2,49.6,29.86,NW,325,2.0,4.0,57,0.00,,,0.00,Wunderground v.1.15,2013-09-21 23:16:00,
2013-09-21 18:22:00,64.8,50.1,29.86,NNW,337,1.0,1.0,59,0.00,,,0.00,Wunderground v.1.15,2013-09-21 23:22:00,
2013-09-21 18:28:00,64.3,50.1,29.86,NNW,332,1.0,1.0,60,0.00,,,0.00,Wunderground v.1.15,2013-09-21 23:28:00,
2013-09-21 18:34:00,63.8,50.5,29.86,NNW,332,0.0,0.0,62,0.00,,,0.00,Wunderground v.1.15,2013-09-21 23:34:00,
2013-09-21 18:40:00,63.3,50.5,29.86,NNW,332,0.0,0.0,63,0.00,,,0.00,Wunderground v.1.15,2013-09-21 23:40:00,
2013-09-21 18:46:00,62.7,50.8,29.86,NNW,332,0.0,0.0,65,0.00,,,0.00,Wunderground v.1.15,2013-09-21 23:46:00,
2013-09-21 18:52:00,61.9,50.8,29.86,NNW,332,0.0,0.0,67,0.00,,,0.00,Wunderground v.1.15,2013-09-21 23:52:00,
2013-09-21 18:58:00,61.1,50.5,29.86,NNW,332,0.0,0.0,68,0.00,,,0.00,Wunderground v.1.15,2013-09-21 23:58:00,
2013-09-21 19:04:00,60.3,50.5,29.87,NNW,332,0.0,0.0,70,0.00,,,0.00,Wunderground v.1.15,2013-09-22 00:04:00,
2013-09-21 19:10:00,59.5,50.5,29.86,NNW,332,0.0,0.0,72,0.00,,,0.00,Wunderground v.1.15,2013-09-22 00:10:00,
2013-09-21 19:16:00,58.9,50.3,29.87,NNW,332,0.0,0.0,73,0.00,,,0.00,Wunderground v.1.15,2013-09-22 00:16:00,
2013-09-21 19:22:00,58.1,50.2,29.86,NNW,332,0.0,0.0,75,0.00,,,0.00,Wunderground v.1.15,2013-09-22 00:22:00,
2013-09-21 19:28:00,57.4,49.9,29.86,NNW,332,0.0,0.0,76,0.00,,,0.00,Wunderground v.1.15,2013-09-22 00:28:00,
2013-09-21 19:34:00,56.8,49.7,29.87,NNW,332,0.0,0.0,77,0.00,,,0.00,Wunderground v.1.15,2013-09-22 00:34:00,
2013-09-21 19:40:00,56.2,49.8,29.87,NNW,332,0.0,0.0,79,0.00,,,0.00,Wunderground v.1.15,2013-09-22 00:40:00,
2013-09-21 19:46:00,55.8,49.7,29.87,NNW,332,0.0,0.0,80,0.00,,,0.00,Wunderground v.1.15,2013-09-22 00:46:00,
2013-09-21 19:52:00,55.3,49.6,29.87,NNW,332,0.0,0.0,81,0.00,,,0.00,Wunderground v.1.15,2013-09-22 00:52:00,
2013-09-21 19:58:00,54.8,49.4,29.88,NNW,332,0.0,0.0,82,0.00,,,0.00,Wunderground v.1.15,2013-09-22 00:58:00,
2013-09-21 20:04:00,54.3,49.2,29.88,NNW,332,0.0,0.0,83,0.00,,,0.00,Wunderground v.1.15,2013-09-22 01:04:00,
2013-09-21 20:10:00,53.9,48.9,29.88,NNW,332,0.0,0.0,83,0.00,,,0.00,Wunderground v.1.15,2013-09-22 01:10:00,
2013-09-21 20:16:00,53.5,48.8,29.88,NNW,332,0.0,0.0,84,0.00,,,0.00,Wunderground v.1.15,2013-09-22 01:16:00,
2013-09-21 20:22:00,53.0,48.6,29.89,NNW,332,0.0,0.0,85,0.00,,,0.00,Wunderground v.1.15,2013-09-22 01:22:00,
2013-09-21 20:28:00,52.7,48.3,29.89,NNW,332,0.0,0.0,85,0.00,,,0.00,Wunderground v.1.15,2013-09-22 01:28:00,
2013-09-21 20:34:00,52.4,48.3,29.89,NNW,332,0.0,0.0,86,0.00,,,0.00,Wunderground v.1.15,2013-09-22 01:34:00,
2013-09-21 20:40:00,52.1,48.0,29.89,NNW,332,0.0,0.0,86,0.00,,,0.00,Wunderground v.1.15,2013-09-22 01:40:00,
2013-09-21 20:46:00,51.8,48.1,29.90,NNW,332,0.0,0.0,87,0.00,,,0.00,Wunderground v.1.15,2013-09-22 01:46:00,
2013-09-21 20:52:00,51.5,48.1,29.90,NNW,332,0.0,0.0,88,0.00,,,0.00,Wunderground v.1.15,2013-09-22 01:52:00,
2013-09-21 20:58:00,51.3,47.9,29.90,NNW,332,0.0,0.0,88,0.00,,,0.00,Wunderground v.1.15,2013-09-22 01:58:00,
2013-09-21 21:04:00,51.1,48.0,29.90,NNW,332,0.0,0.0,89,0.00,,,0.00,Wunderground v.1.15,2013-09-22 02:04:00,
2013-09-21 21:10:00,50.9,47.8,29.90,NNW,332,0.0,0.0,89,0.00,,,0.00,Wunderground v.1.15,2013-09-22 02:10:00,
2013-09-21 21:16:00,50.7,47.6,29.90,NNW,332,0.0,0.0,89,0.00,,,0.00,Wunderground v.1.15,2013-09-22 02:16:00,
2013-09-21 21:22:00,50.4,47.3,29.90,NNW,332,0.0,0.0,89,0.00,,,0.00,Wunderground v.1.15,2013-09-22 02:22:00,
2013-09-21 21:28:00,50.3,47.5,29.91,NNW,332,0.0,0.0,90,0.00,,,0.00,Wunderground v.1.15,2013-09-22 02:28:00,
2013-09-21 21:34:00,50.0,47.2,29.91,NNW,332,0.0,0.0,90,0.00,,,0.00,Wunderground v.1.15,2013-09-22 02:34:00,
2013-09-21 21:40:00,49.8,47.0,29.91,NNW,332,0.0,0.0,90,0.00,,,0.00,Wunderground v.1.15,2013-09-22 02:40:00,
2013-09-21 21:46:00,49.5,46.7,29.91,NNW,332,0.0,0.0,90,0.00,,,0.00,Wunderground v.1.15,2013-09-22 02:46:00,
2013-09-21 21:52:00,49.4,46.6,29.91,NNW,332,0.0,0.0,90,0.00,,,0.00,Wunderground v.1.15,2013-09-22 02:52:00,
2013-09-21 21:58:00,49.1,46.6,29.91,NNW,332,0.0,0.0,91,0.00,,,0.00,Wunderground v.1.15,2013-09-22 02:58:00,
2013-09-21 22:04:00,49.0,46.5,29.91,NNW,332,0.0,0.0,91,0.00,,,0.00,Wunderground v.1.15,2013-09-22 03:04:00,
2013-09-21 22:10:00,48.8,46.3,29.91,NNW,332,0.0,0.0,91,0.00,,,0.00,Wunderground v.1.15,2013-09-22 03:10:00,
2013-09-21 22:16:00,48.7,46.2,29.92,NNW,332,0.0,0.0,91,0.00,,,0.00,Wunderground v.1.15,2013-09-22 03:16:00,
2013-09-21 22:22:00,48.5,46.0,29.92,NNW,332,0.0,0.0,91,0.00,,,0.00,Wunderground v.1.15,2013-09-22 03:22:00,
2013-09-21 22:28:00,48.2,45.7,29.92,NNW,332,0.0,0.0,91,0.00,,,0.00,Wunderground v.1.15,2013-09-22 03:28:00,
2013-09-21 22:34:00,47.9,45.4,29.92,NNW,332,0.0,0.0,91,0.00,,,0.00,Wunderground v.1.15,2013-09-22 03:34:00,
2013-09-21 22:40:00,47.8,45.3,29.92,NNW,332,0.0,0.0,91,0.00,,,0.00,Wunderground v.1.15,2013-09-22 03:40:00,
2013-09-21 22:46:00,47.7,45.5,29.92,NNW,332,0.0,0.0,92,0.00,,,0.00,Wunderground v.1.15,2013-09-22 03:46:00,
2013-09-21 22:52:00,47.6,45.4,29.92,NNW,332,0.0,0.0,92,0.00,,,0.00,Wunderground v.1.15,2013-09-22 03:52:00,
2013-09-21 22:58:00,47.4,45.2,29.92,NNW,332,0.0,0.0,92,0.00,,,0.00,Wunderground v.1.15,2013-09-22 03:58:00,
2013-09-21 23:02:00,47.3,45.1,29.92,NNW,332,0.0,0.0,92,0.00,,,0.00,Wunderground v.1.15,2013-09-22 04:02:00,
2013-09-21 23:04:00,47.3,45.1,29.93,NNW,332,0.0,0.0,92,0.00,,,0.00,Wunderground v.1.15,2013-09-22 04:04:00,
2013-09-21 23:10:00,47.2,45.0,29.93,NNW,332,0.0,0.0,92,0.00,,,0.00,Wunderground v.1.15,2013-09-22 04:10:00,
2013-09-21 23:12:00,47.1,44.9,29.93,NNW,332,0.0,0.0,92,0.00,,,0.00,Wunderground v.1.15,2013-09-22 04:12:00,
2013-09-21 23:16:00,47.1,44.9,29.93,NNW,332,0.0,0.0,92,0.00,,,0.00,Wunderground v.1.15,2013-09-22 04:16:00,
2013-09-21 23:18:00,47.0,44.8,29.93,NNW,332,0.0,0.0,92,0.00,,,0.00,Wunderground v.1.15,2013-09-22 04:18:00,
2013-09-21 23:24:00,46.9,44.7,29.93,NNW,332,0.0,0.0,92,0.00,,,0.00,Wunderground v.1.15,2013-09-22 04:24:00,
2013-09-21 23:30:00,46.7,44.5,29.93,NNW,332,0.0,0.0,92,0.00,,,0.00,Wunderground v.1.15,2013-09-22 04:30:00,
2013-09-21 23:36:00,46.5,44.3,29.94,NNW,332,0.0,0.0,92,0.00,,,0.00,Wunderground v.1.15,2013-09-22 04:36:00,
2013-09-21 23:42:00,46.4,44.2,29.94,NNW,332,0.0,0.0,92,0.00,,,0.00,Wunderground v.1.15,2013-09-22 04:42:00,
2013-09-21 23:48:00,46.1,43.9,29.94,NNW,332,0.0,0.0,92,0.00,,,0.00,Wunderground v.1.15,2013-09-22 04:48:00,
2013-09-21 23:54:00,46.0,43.8,29.94,NNW,332,0.0,0.0,92,0.00,,,0.00,Wunderground v.1.15,2013-09-22 04:54:00,